sensor_id;sensor_type;location;lat;lon;timestamp;P1;durP1;ratioP1;P2;durP2;ratioP2
75700;SDS011;64321;48.796;44.740;2023-03-11T00:03:34;31.30;;;18.38;;
75700;SDS011;64321;48.796;44.740;2023-03-11T00:08:36;34.17;;;16.98;;
75700;SDS011;64321;48.796;44.740;2023-03-11T00:13:38;37.25;;;19.52;;
75700;SDS011;64321;48.796;44.740;2023-03-11T00:18:42;35.70;;;18.17;;
75700;SDS011;64321;48.796;44.740;2023-03-11T00:23:44;32.00;;;17.38;;
75700;SDS011;64321;48.796;44.740;2023-03-11T00:28:47;32.95;;;16.10;;
75700;SDS011;64321;48.796;44.740;2023-03-11T00:33:50;31.67;;;16.90;;
75700;SDS011;64321;48.796;44.740;2023-03-11T00:38:52;37.67;;;19.63;;
75700;SDS011;64321;48.796;44.740;2023-03-11T00:43:54;31.63;;;15.30;;
75700;SDS011;64321;48.796;44.740;2023-03-11T00:48:56;27.05;;;15.82;;
75700;SDS011;64321;48.796;44.740;2023-03-11T00:53:59;29.30;;;15.55;;
75700;SDS011;64321;48.796;44.740;2023-03-11T00:59:03;33.15;;;16.88;;
75700;SDS011;64321;48.796;44.740;2023-03-11T01:04:06;37.28;;;18.30;;
75700;SDS011;64321;48.796;44.740;2023-03-11T01:09:08;35.35;;;18.25;;
75700;SDS011;64321;48.796;44.740;2023-03-11T01:14:10;39.42;;;20.58;;
75700;SDS011;64321;48.796;44.740;2023-03-11T01:19:12;39.17;;;21.52;;
75700;SDS011;64321;48.796;44.740;2023-03-11T01:24:14;43.03;;;20.42;;
75700;SDS011;64321;48.796;44.740;2023-03-11T01:29:17;35.58;;;18.83;;
75700;SDS011;64321;48.796;44.740;2023-03-11T01:34:19;29.67;;;16.70;;
75700;SDS011;64321;48.796;44.740;2023-03-11T01:39:21;32.78;;;17.73;;
75700;SDS011;64321;48.796;44.740;2023-03-11T01:44:23;38.60;;;18.63;;
75700;SDS011;64321;48.796;44.740;2023-03-11T01:49:26;42.20;;;19.70;;
75700;SDS011;64321;48.796;44.740;2023-03-11T01:54:30;41.30;;;17.95;;
75700;SDS011;64321;48.796;44.740;2023-03-11T01:59:35;38.85;;;18.67;;
75700;SDS011;64321;48.796;44.740;2023-03-11T02:04:39;35.88;;;17.92;;
75700;SDS011;64321;48.796;44.740;2023-03-11T02:09:41;38.65;;;18.95;;
75700;SDS011;64321;48.796;44.740;2023-03-11T02:14:45;34.95;;;17.90;;
75700;SDS011;64321;48.796;44.740;2023-03-11T02:30:49;36.83;;;18.73;;
75700;SDS011;64321;48.796;44.740;2023-03-11T02:35:53;35.60;;;18.08;;
75700;SDS011;64321;48.796;44.740;2023-03-11T02:40:59;37.88;;;19.75;;
75700;SDS011;64321;48.796;44.740;2023-03-11T02:46:03;34.67;;;17.27;;
75700;SDS011;64321;48.796;44.740;2023-03-11T02:51:06;33.05;;;17.80;;
75700;SDS011;64321;48.796;44.740;2023-03-11T02:56:09;35.25;;;17.42;;
75700;SDS011;64321;48.796;44.740;2023-03-11T03:01:12;34.33;;;17.73;;
75700;SDS011;64321;48.796;44.740;2023-03-11T03:06:18;42.33;;;23.27;;
75700;SDS011;64321;48.796;44.740;2023-03-11T03:11:22;35.03;;;17.88;;
75700;SDS011;64321;48.796;44.740;2023-03-11T03:16:24;32.50;;;15.93;;
75700;SDS011;64321;48.796;44.740;2023-03-11T03:21:28;36.17;;;18.30;;
75700;SDS011;64321;48.796;44.740;2023-03-11T03:26:30;32.78;;;17.08;;
75700;SDS011;64321;48.796;44.740;2023-03-11T03:31:33;36.28;;;16.83;;
75700;SDS011;64321;48.796;44.740;2023-03-11T03:36:36;35.35;;;17.48;;
75700;SDS011;64321;48.796;44.740;2023-03-11T03:41:39;37.05;;;19.63;;
75700;SDS011;64321;48.796;44.740;2023-03-11T03:46:42;38.80;;;19.98;;
75700;SDS011;64321;48.796;44.740;2023-03-11T03:51:44;33.22;;;16.88;;
75700;SDS011;64321;48.796;44.740;2023-03-11T03:56:56;36.17;;;16.58;;
75700;SDS011;64321;48.796;44.740;2023-03-11T04:01:58;40.08;;;16.02;;
75700;SDS011;64321;48.796;44.740;2023-03-11T04:07:04;31.00;;;14.32;;
75700;SDS011;64321;48.796;44.740;2023-03-11T04:12:10;37.15;;;16.50;;
75700;SDS011;64321;48.796;44.740;2023-03-11T04:17:14;31.50;;;15.10;;
75700;SDS011;64321;48.796;44.740;2023-03-11T04:22:18;32.60;;;15.93;;
75700;SDS011;64321;48.796;44.740;2023-03-11T04:27:21;32.55;;;15.63;;
75700;SDS011;64321;48.796;44.740;2023-03-11T04:32:24;32.13;;;14.65;;
75700;SDS011;64321;48.796;44.740;2023-03-11T04:37:26;36.20;;;14.73;;
75700;SDS011;64321;48.796;44.740;2023-03-11T04:42:29;34.97;;;16.40;;
75700;SDS011;64321;48.796;44.740;2023-03-11T04:47:32;36.22;;;16.65;;
75700;SDS011;64321;48.796;44.740;2023-03-11T04:52:34;39.17;;;16.67;;
75700;SDS011;64321;48.796;44.740;2023-03-11T04:57:37;38.47;;;15.70;;
75700;SDS011;64321;48.796;44.740;2023-03-11T05:02:39;33.25;;;15.95;;
75700;SDS011;64321;48.796;44.740;2023-03-11T05:07:42;38.83;;;18.77;;
75700;SDS011;64321;48.796;44.740;2023-03-11T05:12:46;48.13;;;18.30;;
75700;SDS011;64321;48.796;44.740;2023-03-11T05:17:48;40.40;;;17.92;;
75700;SDS011;64321;48.796;44.740;2023-03-11T05:22:51;33.05;;;15.18;;
75700;SDS011;64321;48.796;44.740;2023-03-11T05:27:53;28.45;;;14.32;;
75700;SDS011;64321;48.796;44.740;2023-03-11T05:32:55;28.90;;;13.90;;
75700;SDS011;64321;48.796;44.740;2023-03-11T05:37:59;26.95;;;13.05;;
75700;SDS011;64321;48.796;44.740;2023-03-11T05:43:03;26.13;;;13.95;;
75700;SDS011;64321;48.796;44.740;2023-03-11T05:48:10;24.73;;;12.90;;
75700;SDS011;64321;48.796;44.740;2023-03-11T05:53:12;26.33;;;13.15;;
75700;SDS011;64321;48.796;44.740;2023-03-11T05:58:14;24.88;;;13.00;;
75700;SDS011;64321;48.796;44.740;2023-03-11T06:03:17;22.95;;;12.30;;
75700;SDS011;64321;48.796;44.740;2023-03-11T06:08:19;23.00;;;11.55;;
75700;SDS011;64321;48.796;44.740;2023-03-11T06:13:23;26.00;;;12.82;;
75700;SDS011;64321;48.796;44.740;2023-03-11T06:18:26;33.35;;;14.27;;
75700;SDS011;64321;48.796;44.740;2023-03-11T06:23:29;45.53;;;19.70;;
75700;SDS011;64321;48.796;44.740;2023-03-11T06:28:33;57.80;;;23.27;;
75700;SDS011;64321;48.796;44.740;2023-03-11T06:33:35;47.80;;;21.05;;
75700;SDS011;64321;48.796;44.740;2023-03-11T06:38:38;52.63;;;21.20;;
75700;SDS011;64321;48.796;44.740;2023-03-11T06:43:40;45.63;;;18.20;;
75700;SDS011;64321;48.796;44.740;2023-03-11T06:48:43;37.10;;;15.43;;
75700;SDS011;64321;48.796;44.740;2023-03-11T06:53:49;36.10;;;16.23;;
75700;SDS011;64321;48.796;44.740;2023-03-11T06:58:53;32.15;;;12.93;;
75700;SDS011;64321;48.796;44.740;2023-03-11T07:03:59;28.17;;;13.23;;
75700;SDS011;64321;48.796;44.740;2023-03-11T07:09:01;29.27;;;12.85;;
75700;SDS011;64321;48.796;44.740;2023-03-11T07:14:06;27.85;;;12.13;;
75700;SDS011;64321;48.796;44.740;2023-03-11T07:19:12;25.38;;;14.15;;
75700;SDS011;64321;48.796;44.740;2023-03-11T07:24:14;25.55;;;12.77;;
75700;SDS011;64321;48.796;44.740;2023-03-11T07:29:17;23.55;;;12.38;;
75700;SDS011;64321;48.796;44.740;2023-03-11T07:34:20;25.73;;;12.30;;
75700;SDS011;64321;48.796;44.740;2023-03-11T07:39:23;27.20;;;14.02;;
75700;SDS011;64321;48.796;44.740;2023-03-11T07:44:25;27.55;;;14.55;;
75700;SDS011;64321;48.796;44.740;2023-03-11T07:49:27;28.27;;;14.20;;
75700;SDS011;64321;48.796;44.740;2023-03-11T07:54:29;36.97;;;14.77;;
75700;SDS011;64321;48.796;44.740;2023-03-11T07:59:31;39.05;;;17.85;;
75700;SDS011;64321;48.796;44.740;2023-03-11T08:04:34;35.38;;;15.65;;
75700;SDS011;64321;48.796;44.740;2023-03-11T08:09:36;37.17;;;18.13;;
75700;SDS011;64321;48.796;44.740;2023-03-11T08:14:38;38.47;;;15.52;;
75700;SDS011;64321;48.796;44.740;2023-03-11T08:19:40;36.63;;;17.23;;
75700;SDS011;64321;48.796;44.740;2023-03-11T08:24:43;36.38;;;17.42;;
75700;SDS011;64321;48.796;44.740;2023-03-11T08:29:45;36.22;;;16.73;;
75700;SDS011;64321;48.796;44.740;2023-03-11T08:34:47;41.42;;;17.52;;
75700;SDS011;64321;48.796;44.740;2023-03-11T08:39:49;45.83;;;21.48;;
75700;SDS011;64321;48.796;44.740;2023-03-11T08:44:52;45.10;;;22.48;;
75700;SDS011;64321;48.796;44.740;2023-03-11T08:49:54;46.75;;;22.38;;
75700;SDS011;64321;48.796;44.740;2023-03-11T08:54:56;50.70;;;21.50;;
75700;SDS011;64321;48.796;44.740;2023-03-11T08:59:58;59.58;;;24.60;;
75700;SDS011;64321;48.796;44.740;2023-03-11T09:05:00;57.45;;;27.02;;
75700;SDS011;64321;48.796;44.740;2023-03-11T09:10:03;61.55;;;28.42;;
75700;SDS011;64321;48.796;44.740;2023-03-11T09:15:06;57.45;;;27.55;;
75700;SDS011;64321;48.796;44.740;2023-03-11T09:20:10;56.42;;;25.65;;
75700;SDS011;64321;48.796;44.740;2023-03-11T09:25:13;62.08;;;28.45;;
75700;SDS011;64321;48.796;44.740;2023-03-11T09:30:15;61.80;;;26.70;;
75700;SDS011;64321;48.796;44.740;2023-03-11T09:35:18;58.50;;;27.65;;
75700;SDS011;64321;48.796;44.740;2023-03-11T09:40:21;51.20;;;25.23;;
75700;SDS011;64321;48.796;44.740;2023-03-11T09:45:25;50.75;;;24.35;;
75700;SDS011;64321;48.796;44.740;2023-03-11T09:50:30;52.55;;;25.80;;
75700;SDS011;64321;48.796;44.740;2023-03-11T10:00:34;49.13;;;23.92;;
75700;SDS011;64321;48.796;44.740;2023-03-11T10:05:37;46.78;;;23.10;;
75700;SDS011;64321;48.796;44.740;2023-03-11T10:10:44;48.03;;;22.75;;
75700;SDS011;64321;48.796;44.740;2023-03-11T10:16:00;51.88;;;23.58;;
75700;SDS011;64321;48.796;44.740;2023-03-11T10:26:33;53.00;;;26.40;;
75700;SDS011;64321;48.796;44.740;2023-03-11T10:36:45;47.28;;;24.08;;
75700;SDS011;64321;48.796;44.740;2023-03-11T10:41:54;52.58;;;25.85;;
75700;SDS011;64321;48.796;44.740;2023-03-11T10:51:58;50.17;;;25.95;;
75700;SDS011;64321;48.796;44.740;2023-03-11T10:57:25;52.30;;;27.15;;
75700;SDS011;64321;48.796;44.740;2023-03-11T11:02:37;54.63;;;26.17;;
75700;SDS011;64321;48.796;44.740;2023-03-11T11:07:39;46.15;;;23.00;;
75700;SDS011;64321;48.796;44.740;2023-03-11T11:12:51;48.35;;;21.90;;
75700;SDS011;64321;48.796;44.740;2023-03-11T11:18:01;40.47;;;20.55;;
75700;SDS011;64321;48.796;44.740;2023-03-11T11:23:05;48.85;;;19.88;;
75700;SDS011;64321;48.796;44.740;2023-03-11T11:28:17;49.20;;;18.45;;
75700;SDS011;64321;48.796;44.740;2023-03-11T11:38:29;38.92;;;17.70;;
75700;SDS011;64321;48.796;44.740;2023-03-11T11:43:38;45.17;;;19.13;;
75700;SDS011;64321;48.796;44.740;2023-03-11T11:54:00;41.97;;;19.02;;
75700;SDS011;64321;48.796;44.740;2023-03-11T11:59:06;40.13;;;19.15;;
75700;SDS011;64321;48.796;44.740;2023-03-11T12:04:22;37.83;;;19.10;;
75700;SDS011;64321;48.796;44.740;2023-03-11T12:14:54;50.85;;;21.48;;
75700;SDS011;64321;48.796;44.740;2023-03-11T12:20:02;43.80;;;21.48;;
75700;SDS011;64321;48.796;44.740;2023-03-11T12:25:11;43.72;;;21.67;;
75700;SDS011;64321;48.796;44.740;2023-03-11T12:30:24;38.13;;;19.20;;
75700;SDS011;64321;48.796;44.740;2023-03-11T12:35:28;41.55;;;19.80;;
75700;SDS011;64321;48.796;44.740;2023-03-11T12:40:56;38.22;;;18.55;;
75700;SDS011;64321;48.796;44.740;2023-03-11T12:45:57;33.05;;;17.08;;
75700;SDS011;64321;48.796;44.740;2023-03-11T12:51:02;36.20;;;18.10;;
75700;SDS011;64321;48.796;44.740;2023-03-11T12:56:15;32.28;;;16.63;;
75700;SDS011;64321;48.796;44.740;2023-03-11T13:01:23;36.00;;;16.08;;
75700;SDS011;64321;48.796;44.740;2023-03-11T13:16:35;23.98;;;13.05;;
75700;SDS011;64321;48.796;44.740;2023-03-11T13:21:38;22.98;;;12.15;;
75700;SDS011;64321;48.796;44.740;2023-03-11T13:47:47;24.60;;;12.68;;
75700;SDS011;64321;48.796;44.740;2023-03-11T13:52:51;32.25;;;13.07;;
75700;SDS011;64321;48.796;44.740;2023-03-11T13:57:56;25.90;;;11.95;;
75700;SDS011;64321;48.796;44.740;2023-03-11T14:03:00;29.85;;;13.73;;
75700;SDS011;64321;48.796;44.740;2023-03-11T14:08:23;33.35;;;13.27;;
75700;SDS011;64321;48.796;44.740;2023-03-11T14:13:28;35.13;;;14.07;;
75700;SDS011;64321;48.796;44.740;2023-03-11T14:18:34;31.02;;;15.70;;
75700;SDS011;64321;48.796;44.740;2023-03-11T14:23:44;28.80;;;12.82;;
75700;SDS011;64321;48.796;44.740;2023-03-11T14:28:51;23.75;;;12.70;;
75700;SDS011;64321;48.796;44.740;2023-03-11T14:34:04;27.33;;;12.32;;
75700;SDS011;64321;48.796;44.740;2023-03-11T14:39:32;31.60;;;12.80;;
75700;SDS011;64321;48.796;44.740;2023-03-11T14:44:37;26.33;;;12.57;;
75700;SDS011;64321;48.796;44.740;2023-03-11T14:49:40;26.98;;;12.20;;
75700;SDS011;64321;48.796;44.740;2023-03-11T14:54:42;25.00;;;13.00;;
75700;SDS011;64321;48.796;44.740;2023-03-11T14:59:46;21.88;;;10.98;;
75700;SDS011;64321;48.796;44.740;2023-03-11T15:04:50;22.00;;;11.43;;
75700;SDS011;64321;48.796;44.740;2023-03-11T15:09:52;26.23;;;10.75;;
75700;SDS011;64321;48.796;44.740;2023-03-11T15:14:55;24.55;;;13.30;;
75700;SDS011;64321;48.796;44.740;2023-03-11T15:19:57;22.33;;;12.73;;
75700;SDS011;64321;48.796;44.740;2023-03-11T15:25:00;23.30;;;12.43;;
75700;SDS011;64321;48.796;44.740;2023-03-11T15:30:04;23.80;;;11.63;;
75700;SDS011;64321;48.796;44.740;2023-03-11T15:35:18;23.05;;;10.68;;
75700;SDS011;64321;48.796;44.740;2023-03-11T15:45:43;19.17;;;8.85;;
75700;SDS011;64321;48.796;44.740;2023-03-11T15:50:46;21.40;;;10.65;;
75700;SDS011;64321;48.796;44.740;2023-03-11T15:55:56;26.33;;;10.60;;
75700;SDS011;64321;48.796;44.740;2023-03-11T16:01:08;17.73;;;9.05;;
75700;SDS011;64321;48.796;44.740;2023-03-11T16:06:10;13.00;;;8.13;;
75700;SDS011;64321;48.796;44.740;2023-03-11T16:11:12;17.65;;;9.43;;
75700;SDS011;64321;48.796;44.740;2023-03-11T16:16:15;18.50;;;10.18;;
75700;SDS011;64321;48.796;44.740;2023-03-11T16:21:18;18.45;;;10.68;;
75700;SDS011;64321;48.796;44.740;2023-03-11T16:26:22;21.70;;;10.60;;
75700;SDS011;64321;48.796;44.740;2023-03-11T16:31:24;22.63;;;10.10;;
75700;SDS011;64321;48.796;44.740;2023-03-11T16:36:26;21.05;;;12.18;;
75700;SDS011;64321;48.796;44.740;2023-03-11T16:41:28;19.67;;;10.70;;
75700;SDS011;64321;48.796;44.740;2023-03-11T16:46:35;18.30;;;10.30;;
75700;SDS011;64321;48.796;44.740;2023-03-11T16:51:37;17.95;;;9.95;;
75700;SDS011;64321;48.796;44.740;2023-03-11T16:56:39;21.17;;;9.60;;
75700;SDS011;64321;48.796;44.740;2023-03-11T17:01:42;18.48;;;10.77;;
75700;SDS011;64321;48.796;44.740;2023-03-11T17:06:44;18.95;;;9.77;;
75700;SDS011;64321;48.796;44.740;2023-03-11T17:11:47;17.67;;;9.65;;
75700;SDS011;64321;48.796;44.740;2023-03-11T17:16:50;16.05;;;9.88;;
75700;SDS011;64321;48.796;44.740;2023-03-11T17:21:52;15.23;;;8.48;;
75700;SDS011;64321;48.796;44.740;2023-03-11T17:26:55;15.43;;;7.78;;
75700;SDS011;64321;48.796;44.740;2023-03-11T17:31:57;17.38;;;8.20;;
75700;SDS011;64321;48.796;44.740;2023-03-11T17:37:00;13.18;;;9.10;;
75700;SDS011;64321;48.796;44.740;2023-03-11T17:42:03;13.93;;;7.78;;
75700;SDS011;64321;48.796;44.740;2023-03-11T17:47:06;19.00;;;7.20;;
75700;SDS011;64321;48.796;44.740;2023-03-11T17:52:08;13.10;;;7.30;;
75700;SDS011;64321;48.796;44.740;2023-03-11T17:57:11;11.25;;;7.40;;
75700;SDS011;64321;48.796;44.740;2023-03-11T18:02:13;12.65;;;6.00;;
75700;SDS011;64321;48.796;44.740;2023-03-11T18:07:15;14.05;;;6.88;;
75700;SDS011;64321;48.796;44.740;2023-03-11T18:12:18;10.40;;;6.55;;
75700;SDS011;64321;48.796;44.740;2023-03-11T18:17:20;11.18;;;7.00;;
75700;SDS011;64321;48.796;44.740;2023-03-11T18:22:23;9.15;;;6.75;;
75700;SDS011;64321;48.796;44.740;2023-03-11T18:27:25;9.98;;;5.45;;
75700;SDS011;64321;48.796;44.740;2023-03-11T18:32:27;9.85;;;5.82;;
75700;SDS011;64321;48.796;44.740;2023-03-11T18:37:30;10.18;;;5.25;;
75700;SDS011;64321;48.796;44.740;2023-03-11T18:42:33;10.05;;;6.03;;
75700;SDS011;64321;48.796;44.740;2023-03-11T18:47:37;10.07;;;5.47;;
75700;SDS011;64321;48.796;44.740;2023-03-11T18:52:39;6.10;;;3.35;;
75700;SDS011;64321;48.796;44.740;2023-03-11T18:57:42;6.20;;;3.55;;
75700;SDS011;64321;48.796;44.740;2023-03-11T19:02:44;6.85;;;3.70;;
75700;SDS011;64321;48.796;44.740;2023-03-11T19:07:46;4.82;;;2.63;;
75700;SDS011;64321;48.796;44.740;2023-03-11T19:12:49;6.55;;;3.03;;
75700;SDS011;64321;48.796;44.740;2023-03-11T19:17:51;7.53;;;3.15;;
75700;SDS011;64321;48.796;44.740;2023-03-11T19:23:07;7.93;;;4.57;;
75700;SDS011;64321;48.796;44.740;2023-03-11T19:28:10;7.45;;;3.95;;
75700;SDS011;64321;48.796;44.740;2023-03-11T19:33:12;8.30;;;4.38;;
75700;SDS011;64321;48.796;44.740;2023-03-11T19:38:14;10.40;;;5.32;;
75700;SDS011;64321;48.796;44.740;2023-03-11T19:43:16;12.07;;;5.32;;
75700;SDS011;64321;48.796;44.740;2023-03-11T19:48:20;10.27;;;5.47;;
75700;SDS011;64321;48.796;44.740;2023-03-11T19:53:22;8.20;;;4.65;;
75700;SDS011;64321;48.796;44.740;2023-03-11T19:58:25;9.43;;;4.57;;
75700;SDS011;64321;48.796;44.740;2023-03-11T20:03:30;9.32;;;4.40;;
75700;SDS011;64321;48.796;44.740;2023-03-11T20:08:34;7.50;;;3.58;;
75700;SDS011;64321;48.796;44.740;2023-03-11T20:13:38;6.88;;;3.22;;
75700;SDS011;64321;48.796;44.740;2023-03-11T20:18:43;7.25;;;3.30;;
75700;SDS011;64321;48.796;44.740;2023-03-11T20:23:46;5.05;;;2.85;;
75700;SDS011;64321;48.796;44.740;2023-03-11T20:28:53;5.32;;;2.55;;
75700;SDS011;64321;48.796;44.740;2023-03-11T20:33:55;5.40;;;2.85;;
75700;SDS011;64321;48.796;44.740;2023-03-11T20:38:58;7.63;;;2.60;;
75700;SDS011;64321;48.796;44.740;2023-03-11T20:44:00;6.82;;;2.53;;
75700;SDS011;64321;48.796;44.740;2023-03-11T20:49:03;5.97;;;2.15;;
75700;SDS011;64321;48.796;44.740;2023-03-11T20:54:05;5.57;;;2.10;;
75700;SDS011;64321;48.796;44.740;2023-03-11T20:59:08;5.78;;;2.08;;
75700;SDS011;64321;48.796;44.740;2023-03-11T21:04:11;6.05;;;2.60;;
75700;SDS011;64321;48.796;44.740;2023-03-11T21:09:17;5.45;;;2.30;;
75700;SDS011;64321;48.796;44.740;2023-03-11T21:14:19;4.80;;;1.90;;
75700;SDS011;64321;48.796;44.740;2023-03-11T21:19:22;6.32;;;2.65;;
75700;SDS011;64321;48.796;44.740;2023-03-11T21:24:24;4.63;;;2.35;;
75700;SDS011;64321;48.796;44.740;2023-03-11T21:29:26;7.57;;;2.38;;
75700;SDS011;64321;48.796;44.740;2023-03-11T21:34:31;5.40;;;2.45;;
75700;SDS011;64321;48.796;44.740;2023-03-11T21:39:33;7.63;;;2.42;;
75700;SDS011;64321;48.796;44.740;2023-03-11T21:44:36;5.80;;;2.10;;
75700;SDS011;64321;48.796;44.740;2023-03-11T21:49:38;4.68;;;2.00;;
75700;SDS011;64321;48.796;44.740;2023-03-11T21:54:40;6.03;;;2.47;;
75700;SDS011;64321;48.796;44.740;2023-03-11T21:59:42;7.18;;;2.17;;
75700;SDS011;64321;48.796;44.740;2023-03-11T22:04:45;5.70;;;2.60;;
75700;SDS011;64321;48.796;44.740;2023-03-11T22:09:47;8.68;;;2.20;;
75700;SDS011;64321;48.796;44.740;2023-03-11T22:14:50;5.30;;;1.88;;
75700;SDS011;64321;48.796;44.740;2023-03-11T22:19:52;5.55;;;2.00;;
75700;SDS011;64321;48.796;44.740;2023-03-11T22:24:54;4.30;;;2.00;;
75700;SDS011;64321;48.796;44.740;2023-03-11T22:29:57;6.00;;;2.47;;
75700;SDS011;64321;48.796;44.740;2023-03-11T22:34:59;5.85;;;2.53;;
75700;SDS011;64321;48.796;44.740;2023-03-11T22:40:01;4.88;;;2.38;;
75700;SDS011;64321;48.796;44.740;2023-03-11T22:45:05;7.75;;;2.53;;
75700;SDS011;64321;48.796;44.740;2023-03-11T22:50:08;6.25;;;2.38;;
75700;SDS011;64321;48.796;44.740;2023-03-11T22:55:11;5.45;;;3.22;;
75700;SDS011;64321;48.796;44.740;2023-03-11T23:00:15;7.47;;;2.55;;
75700;SDS011;64321;48.796;44.740;2023-03-11T23:05:21;6.95;;;3.03;;
75700;SDS011;64321;48.796;44.740;2023-03-11T23:10:24;6.97;;;3.17;;
75700;SDS011;64321;48.796;44.740;2023-03-11T23:15:26;6.70;;;3.20;;
75700;SDS011;64321;48.796;44.740;2023-03-11T23:20:28;6.72;;;3.65;;
75700;SDS011;64321;48.796;44.740;2023-03-11T23:25:31;8.02;;;3.72;;
75700;SDS011;64321;48.796;44.740;2023-03-11T23:30:33;8.65;;;4.50;;
75700;SDS011;64321;48.796;44.740;2023-03-11T23:35:38;7.72;;;4.60;;
75700;SDS011;64321;48.796;44.740;2023-03-11T23:40:41;9.07;;;5.03;;
75700;SDS011;64321;48.796;44.740;2023-03-11T23:45:43;9.57;;;5.03;;
75700;SDS011;64321;48.796;44.740;2023-03-11T23:50:45;9.23;;;4.40;;
75700;SDS011;64321;48.796;44.740;2023-03-11T23:55:48;8.05;;;4.65;;
